Time;durP1;ratioP1;P1;durP2;ratioP2;P2;SDS_P1;SDS_P2;PMS_P1;PMS_P2;Temp;Humidity;BMP_temperature;BMP_pressure;BME280_temperature;BME280_humidity;BME280_pressure;Samples;Min_cycle;Max_cycle;Signal;HPM_P1;HPM_P2
2021/07/08 00:01:27;;;;;;;;;6.25;5.00;;;;;-146.80;100.00;64830.25;5078436;28;45519;-67
2021/07/08 00:03:53;;;;;;;;;5.50;5.00;;;;;-146.80;100.00;64830.25;5077971;27;46281;-65
2021/07/08 00:06:18;;;;;;;;;3.25;3.25;;;;;-146.80;100.00;64830.25;5077673;28;45279;-65
2021/07/08 00:08:44;;;;;;;;;4.00;4.00;;;;;-146.80;100.00;64830.25;5077721;28;45394;-65
2021/07/08 00:11:09;;;;;;;;;4.00;4.00;;;;;-146.80;100.00;64830.25;5076700;28;45559;-65
2021/07/08 00:13:35;;;;;;;;;5.25;3.50;;;;;-146.80;100.00;64830.25;5077532;28;45658;-64
2021/07/08 00:16:00;;;;;;;;;7.00;3.75;;;;;-146.80;100.00;64830.25;5076122;28;45432;-65
2021/07/08 00:18:27;;;;;;;;;3.50;3.50;;;;;-146.80;100.00;64830.25;5078027;28;45385;-65
2021/07/08 00:20:53;;;;;;;;;4.00;4.00;;;;;-146.80;100.00;64830.25;5077903;28;45335;-66
2021/07/08 00:23:21;;;;;;;;;5.75;5.75;;;;;-146.80;100.00;64830.25;5077267;28;46274;-65
2021/07/08 00:25:49;;;;;;;;;7.25;5.00;;;;;-146.80;100.00;64830.25;5076896;27;45230;-62
2021/07/08 00:28:15;;;;;;;;;5.00;4.00;;;;;-146.80;100.00;64830.25;5059161;28;45467;-66
2021/07/08 00:30:46;;;;;;;;;5.00;4.00;;;;;-146.80;100.00;64830.25;5077510;28;45433;-65
2021/07/08 00:33:12;;;;;;;;;3.00;3.00;;;;;-146.80;100.00;64830.25;5077181;27;46208;-64
2021/07/08 00:35:39;;;;;;;;;4.50;4.25;;;;;-146.80;100.00;64830.25;5075859;28;46040;-64
2021/07/08 00:38:06;;;;;;;;;5.00;5.00;;;;;-146.80;100.00;64830.25;5077532;28;45430;-65
2021/07/08 00:40:32;;;;;;;;;5.00;3.00;;;;;-146.80;100.00;64830.25;5077500;28;45517;-65
2021/07/08 00:42:59;;;;;;;;;6.00;4.00;;;;;-146.80;100.00;64830.25;5077223;28;45646;-64
2021/07/08 00:45:26;;;;;;;;;4.75;4.75;;;;;-146.80;100.00;64830.25;5075452;28;45646;-66
2021/07/08 00:47:52;;;;;;;;;6.75;6.00;;;;;-146.80;100.00;64830.25;5075686;28;45357;-63
2021/07/08 00:50:22;;;;;;;;;5.25;4.75;;;;;-146.80;100.00;64830.25;5077324;28;45671;-65
2021/07/08 00:52:47;;;;;;;;;5.25;5.00;;;;;-146.80;100.00;64830.25;5075540;28;47180;-64
2021/07/08 00:55:14;;;;;;;;;4.50;4.00;;;;;-146.80;100.00;64830.25;5076963;28;45354;-63
2021/07/08 00:57:41;;;;;;;;;6.00;4.50;;;;;-146.80;100.00;64830.25;5075804;28;45337;-65
2021/07/08 01:00:08;;;;;;;;;4.00;4.00;;;;;-146.80;100.00;64830.25;5077147;28;45556;-65
2021/07/08 01:02:33;;;;;;;;;5.50;5.50;;;;;-146.80;100.00;64830.25;5076673;28;45547;-65
2021/07/08 01:04:59;;;;;;;;;4.00;3.25;;;;;-146.80;100.00;64830.25;5077050;28;45419;-65
2021/07/08 01:07:26;;;;;;;;;5.25;4.75;;;;;-146.80;100.00;64830.25;5076854;28;45353;-65
2021/07/08 01:09:52;;;;;;;;;5.25;4.25;;;;;-146.80;100.00;64830.25;5076900;28;45606;-64
2021/07/08 01:12:18;;;;;;;;;6.00;4.50;;;;;-146.80;100.00;64830.25;5076474;27;46915;-62
2021/07/08 01:14:44;;;;;;;;;4.25;4.25;;;;;-146.80;100.00;64830.25;5076655;28;45492;-67
2021/07/08 01:17:10;;;;;;;;;5.75;5.50;;;;;-146.80;100.00;64830.25;5076780;27;45334;-63
2021/07/08 01:19:39;;;;;;;;;8.50;5.00;;;;;-146.80;100.00;64830.25;5076816;28;45410;-63
2021/07/08 01:22:05;;;;;;;;;3.00;3.00;;;;;-146.80;100.00;64830.25;5076553;27;46374;-64
2021/07/08 01:24:31;;;;;;;;;6.25;5.25;;;;;-146.80;100.00;64830.25;5076816;28;45431;-64
2021/07/08 01:26:58;;;;;;;;;4.75;4.25;;;;;-146.80;100.00;64830.25;5076758;28;45448;-65
2021/07/08 01:29:24;;;;;;;;;3.75;3.75;;;;;-146.80;100.00;64830.25;5076481;28;45318;-64
2021/07/08 01:31:49;;;;;;;;;4.75;4.75;;;;;-146.80;100.00;64830.25;5076232;28;45456;-62
2021/07/08 01:34:15;;;;;;;;;8.00;6.75;;;;;-146.80;100.00;64830.25;5076396;28;45369;-65
2021/07/08 01:36:41;;;;;;;;;7.00;6.25;;;;;-146.80;100.00;64830.25;5075335;28;45340;-62
2021/07/08 01:39:06;;;;;;;;;5.00;5.00;;;;;-146.80;100.00;64830.25;5076572;28;45251;-64
2021/07/08 01:41:32;;;;;;;;;9.00;5.00;;;;;-146.80;100.00;64830.25;5076532;28;45308;-65
2021/07/08 01:44:00;;;;;;;;;5.25;5.00;;;;;-146.80;100.00;64830.25;5076605;28;45280;-65
2021/07/08 01:46:26;;;;;;;;;5.00;5.00;;;;;-146.80;100.00;64830.25;5076152;28;45492;-65
2021/07/08 01:48:52;;;;;;;;;4.25;4.25;;;;;-146.80;100.00;64830.25;5076400;28;45396;-65
2021/07/08 01:51:23;;;;;;;;;4.25;4.25;;;;;-146.80;100.00;64830.25;5057818;28;46854;-63
2021/07/08 01:53:50;;;;;;;;;5.00;5.00;;;;;-146.80;100.00;64830.25;5076244;27;45255;-63
2021/07/08 01:56:15;;;;;;;;;4.50;3.75;;;;;-146.80;100.00;64830.25;5076323;28;45280;-65
2021/07/08 01:58:41;;;;;;;;;4.00;4.00;;;;;-146.80;100.00;64830.25;5076469;28;45510;-64
2021/07/08 02:01:07;;;;;;;;;3.00;2.00;;;;;-146.80;100.00;64830.25;5076051;28;46134;-65
2021/07/08 02:03:33;;;;;;;;;6.00;5.00;;;;;-146.80;100.00;64830.25;5074905;28;45318;-66
2021/07/08 02:05:58;;;;;;;;;5.25;4.00;;;;;-146.80;100.00;64830.25;5076016;28;45524;-63
2021/07/08 02:08:24;;;;;;;;;4.50;4.50;;;;;-146.80;100.00;64830.25;5076123;28;45667;-62
2021/07/08 02:10:49;;;;;;;;;6.50;5.50;;;;;-146.80;100.00;64830.25;5074080;28;45494;-64
2021/07/08 02:13:15;;;;;;;;;5.25;4.75;;;;;-146.80;100.00;64830.25;5075621;28;45227;-65
2021/07/08 02:15:40;;;;;;;;;3.50;3.25;;;;;-146.80;100.00;64830.25;5075889;27;45346;-63
2021/07/08 02:18:06;;;;;;;;;4.75;4.00;;;;;-146.80;100.00;64830.25;5075893;28;45430;-63
2021/07/08 02:20:32;;;;;;;;;4.50;4.50;;;;;-146.80;100.00;64830.25;5075923;28;46442;-65
2021/07/08 02:22:58;;;;;;;;;4.00;4.00;;;;;-146.80;100.00;64830.25;5075501;28;45303;-66
2021/07/08 02:25:23;;;;;;;;;5.00;3.00;;;;;-146.80;100.00;64830.25;5075746;28;45338;-64
2021/07/08 02:27:49;;;;;;;;;5.00;5.00;;;;;-146.80;100.00;64830.25;5075875;28;45314;-63
2021/07/08 02:30:21;;;;;;;;;4.00;3.00;;;;;-146.80;100.00;64830.25;5075580;28;46089;-64
2021/07/08 02:32:50;;;;;;;;;4.00;4.00;;;;;-146.80;100.00;64830.25;5075557;28;45578;-66
2021/07/08 02:35:16;;;;;;;;;4.00;4.00;;;;;-146.80;100.00;64830.25;5075582;27;45349;-65
2021/07/08 02:37:42;;;;;;;;;4.00;4.00;;;;;-146.80;100.00;64830.25;5075608;28;45365;-63
2021/07/08 02:40:12;;;;;;;;;4.00;4.00;;;;;-146.80;100.00;64830.25;5074085;28;46818;-64
2021/07/08 02:42:38;;;;;;;;;5.00;4.00;;;;;-146.80;100.00;64830.25;5074183;28;45419;-65
2021/07/08 02:45:06;;;;;;;;;7.00;4.25;;;;;-146.80;100.00;64830.25;5075787;28;45365;-62
2021/07/08 02:47:32;;;;;;;;;2.50;2.50;;;;;-146.80;100.00;64830.25;5076220;28;45566;-64
2021/07/08 02:49:58;;;;;;;;;4.00;4.00;;;;;-146.80;100.00;64830.25;5078743;28;45334;-65
2021/07/08 02:52:23;;;;;;;;;5.50;5.50;;;;;-146.80;100.00;64830.25;5060340;28;45959;-64
2021/07/08 02:54:48;;;;;;;;;7.50;5.25;;;;;-146.80;100.00;64830.25;5079081;28;45458;-64
2021/07/08 02:57:14;;;;;;;;;4.50;4.50;;;;;-146.80;100.00;64830.25;5079107;28;45307;-65
2021/07/08 02:59:39;;;;;;;;;5.25;5.00;;;;;-146.80;100.00;64830.25;5078920;28;45981;-65
2021/07/08 03:02:05;;;;;;;;;5.25;5.25;;;;;-146.80;100.00;64830.25;5079079;28;45196;-64
2021/07/08 03:04:30;;;;;;;;;6.00;6.00;;;;;-146.80;100.00;64830.25;5078705;28;45373;-62
2021/07/08 03:06:56;;;;;;;;;6.00;6.00;;;;;-146.80;100.00;64830.25;5060770;28;45648;-60
2021/07/08 03:09:21;;;;;;;;;6.50;5.50;;;;;-146.80;100.00;64830.25;5078387;28;45245;-62
2021/07/08 03:11:46;;;;;;;;;7.00;6.25;;;;;-146.80;100.00;64830.25;5078666;28;45304;-63
2021/07/08 03:14:12;;;;;;;;;5.00;5.00;;;;;-146.80;100.00;64830.25;5079072;28;45618;-62
2021/07/08 03:16:37;;;;;;;;;7.00;7.00;;;;;-146.80;100.00;64830.25;5060687;28;45197;-60
2021/07/08 03:19:03;;;;;;;;;4.75;4.75;;;;;-146.80;100.00;64830.25;5078843;28;45215;-67
2021/07/08 03:21:28;;;;;;;;;6.00;6.00;;;;;-146.80;100.00;64830.25;5078524;28;45297;-63
2021/07/08 03:23:53;;;;;;;;;5.00;5.00;;;;;-146.80;100.00;64830.25;5078404;28;45197;-63
2021/07/08 03:26:19;;;;;;;;;6.25;5.50;;;;;-146.80;100.00;64830.25;5078761;28;45424;-63
2021/07/08 03:28:44;;;;;;;;;5.50;5.50;;;;;-146.80;100.00;64830.25;5078097;28;45539;-64
2021/07/08 03:31:10;;;;;;;;;6.50;6.00;;;;;-146.80;100.00;64830.25;5078228;28;45380;-63
2021/07/08 03:33:35;;;;;;;;;9.00;5.75;;;;;-146.80;100.00;64830.25;5078657;28;45457;-63
2021/07/08 03:36:00;;;;;;;;;7.00;5.25;;;;;-146.80;100.00;64830.25;5078458;28;45606;-64
2021/07/08 03:38:26;;;;;;;;;7.00;6.25;;;;;-146.80;100.00;64830.25;5078087;28;45412;-62
2021/07/08 03:40:51;;;;;;;;;6.25;6.25;;;;;-146.80;100.00;64830.25;5078201;28;45397;-66
2021/07/08 03:43:17;;;;;;;;;6.25;5.25;;;;;-146.80;100.00;64830.25;5078281;28;45398;-66
2021/07/08 03:45:42;;;;;;;;;6.50;4.00;;;;;-146.80;100.00;64830.25;5078237;28;45488;-62
2021/07/08 03:48:07;;;;;;;;;5.75;5.75;;;;;-146.80;100.00;64830.25;5078231;27;46064;-64
2021/07/08 03:50:33;;;;;;;;;7.00;5.00;;;;;-146.80;100.00;64830.25;5077926;27;45447;-64
2021/07/08 03:52:58;;;;;;;;;9.00;6.50;;;;;-146.80;100.00;64830.25;5078253;28;45310;-65
2021/07/08 03:55:25;;;;;;;;;7.75;5.00;;;;;-146.80;100.00;64830.25;5078154;28;45349;-64
2021/07/08 03:57:54;;;;;;;;;6.50;4.50;;;;;-146.80;100.00;64830.25;5077863;28;45246;-64
2021/07/08 04:00:35;;;;;;;;;6.00;6.00;;;;;-146.80;100.00;64830.25;5076722;27;45491;-64
2021/07/08 04:03:04;;;;;;;;;4.75;4.75;;;;;-146.80;100.00;64830.25;5077890;28;45263;-64
2021/07/08 04:05:30;;;;;;;;;6.00;5.75;;;;;-146.80;100.00;64830.25;5076553;28;45853;-63
2021/07/08 04:07:56;;;;;;;;;7.00;5.00;;;;;-146.80;100.00;64830.25;5076137;28;47239;-63
2021/07/08 04:10:21;;;;;;;;;6.75;5.50;;;;;-146.80;100.00;64830.25;5076161;28;45387;-60
2021/07/08 04:12:47;;;;;;;;;5.25;4.00;;;;;-146.80;100.00;64830.25;5076391;28;45492;-65
2021/07/08 04:15:13;;;;;;;;;7.25;5.00;;;;;-146.80;100.00;64830.25;5077860;28;45637;-64
2021/07/08 04:17:38;;;;;;;;;6.25;4.50;;;;;-146.80;100.00;64830.25;5077690;28;45930;-64
2021/07/08 04:20:09;;;;;;;;;7.00;5.25;;;;;-146.80;100.00;64830.25;5059204;28;45300;-64
2021/07/08 04:22:35;;;;;;;;;9.00;6.00;;;;;-146.80;100.00;64830.25;5077422;27;45464;-65
2021/07/08 04:25:02;;;;;;;;;9.00;8.25;;;;;-146.80;100.00;64830.25;5077625;28;45334;-64
2021/07/08 04:27:27;;;;;;;;;8.25;6.00;;;;;-146.80;100.00;64830.25;5075812;28;47218;-66
2021/07/08 04:29:53;;;;;;;;;8.00;6.25;;;;;-146.80;100.00;64830.25;5077208;27;45399;-65
2021/07/08 04:32:18;;;;;;;;;6.00;5.00;;;;;-146.80;100.00;64830.25;5077520;28;45525;-65
2021/07/08 04:34:44;;;;;;;;;5.50;5.50;;;;;-146.80;100.00;64830.25;5077597;27;45404;-65
2021/07/08 04:37:09;;;;;;;;;6.00;6.00;;;;;-146.80;100.00;64830.25;5077544;28;45845;-65
2021/07/08 04:39:35;;;;;;;;;5.50;5.50;;;;;-146.80;100.00;64830.25;5077197;28;45340;-63
2021/07/08 04:42:00;;;;;;;;;7.50;7.00;;;;;-146.80;100.00;64830.25;5077363;27;45541;-64
2021/07/08 04:44:26;;;;;;;;;5.75;5.50;;;;;-146.80;100.00;64830.25;5077423;28;45483;-64
2021/07/08 04:46:51;;;;;;;;;6.00;5.50;;;;;-146.80;100.00;64830.25;5076987;27;45364;-63
2021/07/08 04:49:16;;;;;;;;;6.50;5.25;;;;;-146.80;100.00;64830.25;5076934;28;45306;-63
2021/07/08 04:51:42;;;;;;;;;6.25;5.25;;;;;-146.80;100.00;64830.25;5077457;28;45619;-62
2021/07/08 04:54:07;;;;;;;;;5.00;5.00;;;;;-146.80;100.00;64830.25;5077506;28;45575;-65
2021/07/08 04:56:33;;;;;;;;;6.25;4.50;;;;;-146.80;100.00;64830.25;5076665;27;45419;-65
2021/07/08 04:58:58;;;;;;;;;5.00;5.00;;;;;-146.80;100.00;64830.25;5075676;28;45230;-64
2021/07/08 05:01:23;;;;;;;;;5.00;5.00;;;;;-146.80;100.00;64830.25;5075618;28;45257;-63
2021/07/08 05:03:49;;;;;;;;;13.75;13.00;;;;;-146.80;100.00;64830.25;5076889;28;45132;-65
2021/07/08 05:06:14;;;;;;;;;6.00;6.00;;;;;-146.80;100.00;64830.25;5075184;28;46994;-64
2021/07/08 05:08:41;;;;;;;;;6.25;4.00;;;;;-146.80;100.00;64830.25;5076794;28;45284;-64
2021/07/08 05:11:07;;;;;;;;;6.00;5.00;;;;;-146.80;100.00;64830.25;5076531;28;45344;-63
2021/07/08 05:13:33;;;;;;;;;6.25;4.75;;;;;-146.80;100.00;64830.25;5077035;27;46092;-64
2021/07/08 05:15:58;;;;;;;;;3.75;3.75;;;;;-146.80;100.00;64830.25;5076359;27;45882;-65
2021/07/08 05:18:24;;;;;;;;;5.00;5.00;;;;;-146.80;100.00;64830.25;5076409;28;45467;-64
2021/07/08 05:20:50;;;;;;;;;8.25;7.00;;;;;-146.80;100.00;64830.25;5076615;27;45324;-64
2021/07/08 05:23:18;;;;;;;;;7.00;7.00;;;;;-146.80;100.00;64830.25;5076750;28;45576;-64
2021/07/08 05:25:46;;;;;;;;;4.75;4.25;;;;;-146.80;100.00;64830.25;5076562;28;47010;-64
2021/07/08 05:28:12;;;;;;;;;6.00;5.25;;;;;-146.80;100.00;64830.25;5075503;28;45354;-64
2021/07/08 05:30:39;;;;;;;;;9.25;7.25;;;;;-146.80;100.00;64830.25;5076404;28;45523;-64
2021/07/08 05:33:05;;;;;;;;;6.00;5.25;;;;;-146.80;100.00;64830.25;5075017;28;45571;-64
2021/07/08 05:35:30;;;;;;;;;9.50;8.75;;;;;-146.80;100.00;64830.25;5074472;28;48195;-65
2021/07/08 05:37:56;;;;;;;;;7.25;7.00;;;;;-146.80;100.00;64830.25;5076311;28;45418;-64
2021/07/08 05:40:21;;;;;;;;;8.75;8.00;;;;;-146.80;100.00;64830.25;5076451;27;45366;-64
2021/07/08 05:42:47;;;;;;;;;9.50;7.00;;;;;-146.80;100.00;64830.25;5076618;28;45501;-64
2021/07/08 05:45:13;;;;;;;;;10.25;8.25;;;;;-146.80;100.00;64830.25;5076220;27;45911;-63
2021/07/08 05:47:38;;;;;;;;;9.75;8.75;;;;;-146.80;100.00;64830.25;5075845;28;45404;-64
2021/07/08 05:50:05;;;;;;;;;7.00;6.25;;;;;-146.80;100.00;64830.25;5076194;28;45237;-66
2021/07/08 05:52:30;;;;;;;;;7.00;7.00;;;;;-146.80;100.00;64830.25;5076179;28;45316;-67
2021/07/08 05:54:55;;;;;;;;;8.00;7.00;;;;;-146.80;100.00;64830.25;5075533;28;45378;-64
2021/07/08 05:57:21;;;;;;;;;9.50;6.50;;;;;-146.80;100.00;64830.25;5076022;28;45526;-65
2021/07/08 05:59:46;;;;;;;;;7.50;7.50;;;;;-146.80;100.00;64830.25;5075992;28;45333;-66
2021/07/08 06:02:12;;;;;;;;;9.00;8.00;;;;;-146.80;100.00;64830.25;5076528;28;45370;-67
2021/07/08 06:04:39;;;;;;;;;14.00;10.25;;;;;-146.80;100.00;64830.25;5075435;28;45463;-66
2021/07/08 06:07:04;;;;;;;;;7.50;7.00;;;;;-146.80;100.00;64830.25;5075909;28;45518;-64
2021/07/08 06:09:30;;;;;;;;;6.75;6.00;;;;;-146.80;100.00;64830.25;5074639;28;45374;-66
2021/07/08 06:11:56;;;;;;;;;6.50;6.00;;;;;-146.80;100.00;64830.25;5076235;28;45760;-66
2021/07/08 06:14:21;;;;;;;;;11.00;9.75;;;;;-146.80;100.00;64830.25;5074152;28;45361;-64
2021/07/08 06:16:46;;;;;;;;;7.50;7.00;;;;;-146.80;100.00;64830.25;5075502;28;45375;-65
2021/07/08 06:19:12;;;;;;;;;7.25;7.25;;;;;-146.80;100.00;64830.25;5076001;27;45263;-64
2021/07/08 06:21:37;;;;;;;;;15.00;12.25;;;;;-146.80;100.00;64830.25;5076002;28;45178;-62
2021/07/08 06:24:03;;;;;;;;;7.00;7.00;;;;;-146.80;100.00;64830.25;5078033;28;46430;-63
2021/07/08 06:26:28;;;;;;;;;5.75;5.75;;;;;-146.80;100.00;64830.25;5079008;28;45346;-65
2021/07/08 06:28:53;;;;;;;;;25.25;15.75;;;;;-146.80;100.00;64830.25;5079259;27;45465;-65
2021/07/08 06:31:19;;;;;;;;;7.00;6.00;;;;;-146.80;100.00;64830.25;5079392;27;45174;-65
2021/07/08 06:33:44;;;;;;;;;4.50;4.50;;;;;-146.80;100.00;64830.25;5079104;28;45326;-66
2021/07/08 06:36:10;;;;;;;;;6.00;6.00;;;;;-146.80;100.00;64830.25;5077900;28;45262;-67
2021/07/08 06:38:36;;;;;;;;;7.50;5.25;;;;;-146.80;100.00;64830.25;5078952;27;45425;-66
2021/07/08 06:41:01;;;;;;;;;7.00;7.00;;;;;-146.80;100.00;64830.25;5079347;28;45333;-66
2021/07/08 06:43:27;;;;;;;;;6.75;6.00;;;;;-146.80;100.00;64830.25;5078931;28;45381;-65
2021/07/08 06:45:54;;;;;;;;;7.25;6.00;;;;;-146.80;100.00;64830.25;5078828;28;45453;-68
2021/07/08 06:48:20;;;;;;;;;7.50;5.50;;;;;-146.80;100.00;64830.25;5078833;28;45329;-64
2021/07/08 06:50:46;;;;;;;;;6.00;5.25;;;;;-146.80;100.00;64830.25;5079466;27;45347;-66
2021/07/08 06:53:11;;;;;;;;;8.75;5.00;;;;;-146.80;100.00;64830.25;5078772;27;47190;-67
2021/07/08 06:55:38;;;;;;;;;9.50;6.75;;;;;-146.80;100.00;64830.25;5078512;27;45389;-66
2021/07/08 06:58:04;;;;;;;;;10.00;6.50;;;;;-146.80;100.00;64830.25;5079044;27;45231;-65
2021/07/08 07:00:33;;;;;;;;;6.00;6.00;;;;;-146.80;100.00;64830.25;5078859;28;45268;-67
2021/07/08 07:02:59;;;;;;;;;8.00;6.25;;;;;-146.80;100.00;64830.25;5078743;28;45400;-66
2021/07/08 07:05:28;;;;;;;;;10.50;7.50;;;;;-146.80;100.00;64830.25;5078867;28;45378;-65
2021/07/08 07:07:56;;;;;;;;;9.00;6.75;;;;;-146.80;100.00;64830.25;5078793;28;45361;-67
2021/07/08 07:10:23;;;;;;;;;6.25;5.00;;;;;-146.80;100.00;64830.25;5078934;28;45385;-64
2021/07/08 07:12:50;;;;;;;;;6.75;6.00;;;;;-146.80;100.00;64830.25;5078561;27;45456;-63
2021/07/08 07:15:18;;;;;;;;;8.00;8.00;;;;;-146.80;100.00;64830.25;5079010;28;45248;-69
2021/07/08 07:17:44;;;;;;;;;8.00;7.00;;;;;-146.80;100.00;64830.25;5078681;28;45228;-65
2021/07/08 07:20:11;;;;;;;;;6.00;6.00;;;;;-146.80;100.00;64830.25;5078808;28;45307;-66
2021/07/08 07:22:37;;;;;;;;;7.75;7.00;;;;;-146.80;100.00;64830.25;5078505;28;46201;-67
2021/07/08 07:25:05;;;;;;;;;6.00;6.00;;;;;-146.80;100.00;64830.25;5077117;28;45496;-65
2021/07/08 07:27:31;;;;;;;;;6.50;6.00;;;;;-146.80;100.00;64830.25;5078632;28;45216;-69
2021/07/08 07:30:02;;;;;;;;;7.75;6.25;;;;;-146.80;100.00;64830.25;5111543;27;45651;-66
2021/07/08 07:32:28;;;;;;;;;6.00;5.00;;;;;-146.80;100.00;64830.25;5078092;28;46705;-68
2021/07/08 07:34:53;;;;;;;;;5.25;5.25;;;;;-146.80;100.00;64830.25;5058747;28;45917;-65
2021/07/08 07:37:19;;;;;;;;;7.00;7.00;;;;;-146.80;100.00;64830.25;5077077;28;45452;-66
2021/07/08 07:39:44;;;;;;;;;6.75;6.00;;;;;-146.80;100.00;64830.25;5078502;28;45315;-67
2021/07/08 07:42:10;;;;;;;;;6.00;6.00;;;;;-146.80;100.00;64830.25;5078052;28;45420;-66
2021/07/08 07:44:43;;;;;;;;;8.75;7.00;;;;;-146.80;100.00;64830.25;5078202;28;45252;-65
2021/07/08 07:47:09;;;;;;;;;8.00;6.00;;;;;-146.80;100.00;64830.25;5077875;27;45503;-66
2021/07/08 07:49:34;;;;;;;;;9.50;7.00;;;;;-146.80;100.00;64830.25;5078205;28;45454;-67
2021/07/08 07:52:00;;;;;;;;;11.00;9.00;;;;;-146.80;100.00;64830.25;5078041;28;46160;-66
2021/07/08 07:54:25;;;;;;;;;12.75;8.00;;;;;-146.80;100.00;64830.25;5077881;27;45309;-66
2021/07/08 07:56:51;;;;;;;;;7.00;7.00;;;;;-146.80;100.00;64830.25;5077153;28;45382;-65
2021/07/08 07:59:16;;;;;;;;;7.50;6.00;;;;;-146.80;100.00;64830.25;5077339;28;45307;-67
2021/07/08 08:01:42;;;;;;;;;7.75;6.00;;;;;-146.80;100.00;64830.25;5078034;27;45425;-65
2021/07/08 08:04:07;;;;;;;;;5.25;5.25;;;;;-146.80;100.00;64830.25;5077760;28;45324;-66
2021/07/08 08:09:17;;;;;;;;;6.00;5.50;;;;;-146.80;100.00;64830.25;5078140;28;45321;-60
2021/07/08 08:11:42;;;;;;;;;27.25;18.25;;;;;-146.80;100.00;64830.25;5077882;28;46319;-66
2021/07/08 08:14:07;;;;;;;;;12.00;7.00;;;;;-146.80;100.00;64830.25;5077590;28;45242;-65
2021/07/08 08:16:35;;;;;;;;;7.25;6.00;;;;;-146.80;100.00;64830.25;5077721;27;45192;-66
2021/07/08 08:19:00;;;;;;;;;6.00;5.75;;;;;-146.80;100.00;64830.25;5076557;28;45385;-67
2021/07/08 08:21:26;;;;;;;;;7.00;6.50;;;;;-146.80;100.00;64830.25;5077443;28;45893;-64
2021/07/08 08:23:51;;;;;;;;;9.50;5.75;;;;;-146.80;100.00;64830.25;5077618;28;45364;-67
2021/07/08 08:26:16;;;;;;;;;6.25;6.25;;;;;-146.80;100.00;64830.25;5077612;27;45389;-67
2021/07/08 08:28:42;;;;;;;;;5.75;5.50;;;;;-146.80;100.00;64830.25;5077870;28;45361;-64
2021/07/08 08:31:07;;;;;;;;;7.25;7.00;;;;;-146.80;100.00;64830.25;5077200;28;46312;-66
2021/07/08 08:33:33;;;;;;;;;5.00;5.00;;;;;-146.80;100.00;64830.25;5076238;28;45887;-65
2021/07/08 08:35:58;;;;;;;;;8.50;8.50;;;;;-146.80;100.00;64830.25;5075932;28;45640;-66
2021/07/08 08:38:23;;;;;;;;;9.75;5.50;;;;;-146.80;100.00;64830.25;5077362;28;45504;-62
2021/07/08 08:40:49;;;;;;;;;7.00;7.00;;;;;-146.80;100.00;64830.25;5076284;28;47559;-68
2021/07/08 08:43:15;;;;;;;;;6.50;4.25;;;;;-146.80;100.00;64830.25;5076961;27;45485;-67
2021/07/08 08:45:47;;;;;;;;;6.50;5.00;;;;;-146.80;100.00;64830.25;5076348;28;45442;-67
2021/07/08 08:48:13;;;;;;;;;6.75;4.00;;;;;-146.80;100.00;64830.25;5077287;28;45323;-64
2021/07/08 08:50:41;;;;;;;;;5.75;4.75;;;;;-146.80;100.00;64830.25;5076868;28;46074;-66
2021/07/08 08:53:07;;;;;;;;;5.25;5.25;;;;;-146.80;100.00;64830.25;5077053;28;45357;-68
2021/07/08 08:55:35;;;;;;;;;6.25;6.25;;;;;-146.80;100.00;64830.25;5077018;28;45491;-67
2021/07/08 08:58:11;;;;;;;;;6.75;6.00;;;;;-146.80;100.00;64830.25;5075883;28;45616;-64
2021/07/08 09:01:05;;;;;;;;;7.00;7.00;;;;;-146.80;100.00;64830.25;5075689;28;45403;-65
2021/07/08 09:03:33;;;;;;;;;7.00;7.00;;;;;-146.80;100.00;64830.25;5075188;28;45667;-66
2021/07/08 09:06:04;;;;;;;;;5.00;5.00;;;;;-146.80;100.00;64830.25;5076826;28;45442;-67
2021/07/08 09:08:29;;;;;;;;;13.25;13.25;;;;;-146.80;100.00;64830.25;5076873;27;45271;-66
2021/07/08 09:11:01;;;;;;;;;7.50;7.50;;;;;-146.80;100.00;64830.25;5076527;28;46005;-63
2021/07/08 09:13:27;;;;;;;;;9.00;9.00;;;;;-146.80;100.00;64830.25;5076551;28;45290;-66
2021/07/08 09:15:52;;;;;;;;;6.50;6.25;;;;;-146.80;100.00;64830.25;5075289;28;45358;-67
2021/07/08 09:18:26;;;;;;;;;6.00;6.00;;;;;-146.80;100.00;64830.25;5075667;28;45295;-66
2021/07/08 09:20:51;;;;;;;;;11.00;10.25;;;;;-146.80;100.00;64830.25;5076921;27;45578;-67
2021/07/08 09:23:18;;;;;;;;;10.50;7.25;;;;;-146.80;100.00;64830.25;5076131;28;45392;-65
2021/07/08 09:25:46;;;;;;;;;7.00;7.00;;;;;-146.80;100.00;64830.25;5076514;27;45425;-66
2021/07/08 09:28:23;;;;;;;;;5.00;5.00;;;;;-146.80;100.00;64830.25;5076513;28;45308;-64
2021/07/08 09:31:08;;;;;;;;;5.50;5.50;;;;;-146.80;100.00;64830.25;5074852;28;46058;-63
2021/07/08 09:33:39;;;;;;;;;6.00;5.50;;;;;-146.80;100.00;64830.25;5075902;28;45356;-65
2021/07/08 09:36:15;;;;;;;;;6.00;5.00;;;;;-146.80;100.00;64830.25;5074822;28;45364;-67
2021/07/08 09:38:45;;;;;;;;;5.00;5.00;;;;;-146.80;100.00;64830.25;5074968;28;45416;-64
2021/07/08 09:41:16;;;;;;;;;9.75;5.50;;;;;-146.80;100.00;64830.25;5075630;28;46097;-67
2021/07/08 09:43:42;;;;;;;;;6.25;5.50;;;;;-146.80;100.00;64830.25;5075525;27;45483;-67
2021/07/08 09:46:09;;;;;;;;;9.00;5.25;;;;;-146.80;100.00;64830.25;5075751;27;45400;-68
2021/07/08 09:48:35;;;;;;;;;4.00;4.00;;;;;-146.80;100.00;64830.25;5076166;27;45313;-66
2021/07/08 09:51:02;;;;;;;;;4.00;4.00;;;;;-146.80;100.00;64830.25;5075509;27;46111;-64
2021/07/08 09:53:29;;;;;;;;;11.25;9.00;;;;;-146.80;100.00;64830.25;5076105;28;45504;-64
2021/07/08 09:58:32;;;;;;;;;4.75;4.75;;;;;-146.80;100.00;64830.25;5075517;27;45431;-63
2021/07/08 10:01:08;;;;;;;;;5.75;5.75;;;;;-146.80;100.00;64830.25;5075465;27;45389;-68
2021/07/08 10:03:35;;;;;;;;;5.00;4.00;;;;;-146.80;100.00;64830.25;5075254;28;45344;-64
2021/07/08 10:06:02;;;;;;;;;5.00;5.00;;;;;-146.80;100.00;64830.25;5075183;27;45258;-67
2021/07/08 10:08:29;;;;;;;;;5.00;5.00;;;;;-146.80;100.00;64830.25;5074844;28;45318;-66
2021/07/08 10:10:57;;;;;;;;;5.00;4.50;;;;;-146.80;100.00;64830.25;5075874;27;46100;-68
2021/07/08 10:13:23;;;;;;;;;7.75;6.00;;;;;-146.80;100.00;64830.25;5075569;28;45479;-67
2021/07/08 10:15:50;;;;;;;;;5.75;5.75;;;;;-146.80;100.00;64830.25;5074219;28;45391;-67
2021/07/08 10:18:17;;;;;;;;;4.75;4.00;;;;;-146.80;100.00;64830.25;5075783;28;45492;-66
2021/07/08 10:20:45;;;;;;;;;6.00;4.00;;;;;-146.80;100.00;64830.25;5075143;27;46353;-69
2021/07/08 10:23:11;;;;;;;;;8.50;7.25;;;;;-146.80;100.00;64830.25;5074895;28;45345;-66
2021/07/08 10:25:37;;;;;;;;;6.00;6.00;;;;;-146.80;100.00;64830.25;5075279;27;45331;-65
2021/07/08 10:28:04;;;;;;;;;6.00;5.25;;;;;-146.80;100.00;64830.25;5075723;28;45568;-67
2021/07/08 10:30:31;;;;;;;;;6.00;5.50;;;;;-146.80;100.00;64830.25;5074847;28;45498;-65
2021/07/08 10:32:58;;;;;;;;;6.75;6.50;;;;;-146.80;100.00;64830.25;5075426;27;45314;-68
2021/07/08 10:35:56;;;;;;;;;6.25;6.25;;;;;-146.80;100.00;64830.25;5074166;28;45319;-66
2021/07/08 10:38:41;;;;;;;;;11.00;8.00;;;;;-146.80;100.00;64830.25;5051106;28;45397;-67
2021/07/08 10:41:09;;;;;;;;;8.00;6.75;;;;;-146.80;100.00;64830.25;5075016;28;45433;-66
2021/07/08 10:43:38;;;;;;;;;7.00;7.00;;;;;-146.80;100.00;64830.25;5075089;28;45366;-68
2021/07/08 10:46:07;;;;;;;;;6.50;5.00;;;;;-146.80;100.00;64830.25;5066671;28;45442;-66
2021/07/08 10:48:44;;;;;;;;;5.50;5.00;;;;;-146.80;100.00;64830.25;5055306;28;45277;-68
2021/07/08 10:51:17;;;;;;;;;8.00;6.50;;;;;-146.80;100.00;64830.25;5036777;28;45585;-65
2021/07/08 10:53:44;;;;;;;;;7.00;6.50;;;;;-146.80;100.00;64830.25;5054744;28;45494;-65
2021/07/08 10:56:16;;;;;;;;;5.00;4.00;;;;;-146.80;100.00;64830.25;5054715;28;45402;-67
2021/07/08 10:58:48;;;;;;;;;10.25;9.25;;;;;-146.80;100.00;64830.25;5054896;28;45343;-68
2021/07/08 11:01:26;;;;;;;;;9.25;9.00;;;;;-146.80;100.00;64830.25;5036762;28;45272;-65
2021/07/08 11:03:52;;;;;;;;;6.00;6.00;;;;;-146.80;100.00;64830.25;5036297;28;45407;-65
2021/07/08 11:06:24;;;;;;;;;5.75;4.75;;;;;-146.80;100.00;64830.25;5054422;28;45446;-65
2021/07/08 11:09:03;;;;;;;;;7.75;7.75;;;;;-146.80;100.00;64830.25;5055426;28;45251;-64
2021/07/08 11:11:28;;;;;;;;;6.75;6.75;;;;;-146.80;100.00;64830.25;5040098;28;47425;-66
2021/07/08 11:14:19;;;;;;;;;5.00;5.00;;;;;-146.80;100.00;64830.25;5040109;28;45406;-69